Time;durP1;ratioP1;P1;durP2;ratioP2;P2;SDS_P1;SDS_P2;PMS_P1;PMS_P2;Temp;Humidity;BMP_temperature;BMP_pressure;BME280_temperature;BME280_humidity;BME280_pressure;Samples;Min_cycle;Max_cycle;Signal;HPM_P1;HPM_P2
2022/01/06 00:01:31;;;;;;;0.40;0.40;;;;;;;2.69;100.00;100630.53;6155383;29;20047;-80
2022/01/06 00:04:33;;;;;;;6.18;1.50;;;;;;;2.64;100.00;100639.31;6165250;28;20434;-80
2022/01/06 00:07:34;;;;;;;4.20;0.30;;;;;;;2.62;100.00;100662.66;6194941;28;20054;-82
2022/01/06 00:10:36;;;;;;;2.05;0.40;;;;;;;2.42;100.00;100681.25;6205772;28;20498;-82
2022/01/06 00:13:50;;;;;;;1.85;0.32;;;;;;;2.26;100.00;100685.03;6205035;28;20050;-83
2022/01/06 00:17:05;;;;;;;1.30;1.13;;;;;;;2.00;100.00;100688.16;6202957;28;20140;-81
2022/01/06 00:23:31;;;;;;;0.47;0.30;;;;;;;1.88;100.00;100699.59;6202066;28;20074;-82
2022/01/06 00:26:33;;;;;;;1.10;0.28;;;;;;;1.80;100.00;100704.06;6202957;28;20050;-82
2022/01/06 00:29:35;;;;;;;0.10;0.10;;;;;;;1.79;100.00;100712.72;6171916;28;20051;-81
2022/01/06 00:32:37;;;;;;;12.05;0.95;;;;;;;1.79;100.00;100728.28;6155308;28;20043;-82
2022/01/06 00:35:38;;;;;;;0.55;0.25;;;;;;;1.65;100.00;100732.84;6153931;28;20419;-81
2022/01/06 00:38:40;;;;;;;0.10;0.10;;;;;;;1.63;100.00;100740.63;6154126;29;20055;-82
2022/01/06 00:41:41;;;;;;;0.25;0.25;;;;;;;1.57;100.00;100740.72;6153173;28;20055;-82
2022/01/06 00:44:44;;;;;;;0.30;0.30;;;;;;;1.56;100.00;100746.78;6153794;28;20526;-82
2022/01/06 00:47:45;;;;;;;0.20;0.20;;;;;;;1.56;100.00;100764.06;6154565;28;20523;-82
2022/01/06 00:50:47;;;;;;;4.95;0.40;;;;;;;1.49;100.00;100758.13;6153860;28;20622;-82
2022/01/06 00:53:48;;;;;;;0.20;0.20;;;;;;;1.43;100.00;100766.84;6155173;29;20047;-82
2022/01/06 00:56:50;;;;;;;1.05;0.57;;;;;;;1.41;100.00;100778.09;6154334;28;20047;-82
2022/01/06 00:59:52;;;;;;;0.30;0.28;;;;;;;1.39;100.00;100785.03;6154928;28;20058;-82
2022/01/06 01:02:54;;;;;;;0.73;0.25;;;;;;;1.32;100.00;100779.09;6154885;29;20056;-83
2022/01/06 01:05:57;;;;;;;0.28;0.20;;;;;;;1.27;100.00;100789.53;6155157;29;20055;-83
2022/01/06 01:08:58;;;;;;;2.20;0.63;;;;;;;1.25;100.00;100788.69;6155731;28;20422;-83
2022/01/06 01:12:02;;;;;;;2.10;0.32;;;;;;;1.25;100.00;100790.41;6154885;29;20391;-84
2022/01/06 01:15:07;;;;;;;0.30;0.30;;;;;;;1.21;100.00;100812.03;6155686;28;20055;-83
2022/01/06 01:18:10;;;;;;;0.45;0.32;;;;;;;1.19;100.00;100814.66;6155571;29;20424;-84
2022/01/06 01:21:11;;;;;;;1.42;0.73;;;;;;;1.10;100.00;100821.69;6156058;28;20048;-84
2022/01/06 01:24:13;;;;;;;0.22;0.22;;;;;;;1.07;100.00;100821.72;6166294;28;20058;-84
2022/01/06 01:27:15;;;;;;;0.35;0.30;;;;;;;1.05;100.00;100842.47;6195993;28;20051;-84
2022/01/06 01:30:30;;;;;;;0.47;0.47;;;;;;;1.02;100.00;100838.16;6190367;28;20042;-83
2022/01/06 01:33:32;;;;;;;2.95;0.50;;;;;;;1.06;100.00;100851.94;6183423;28;20054;-83
2022/01/06 01:36:33;;;;;;;0.43;0.20;;;;;;;1.00;100.00;100855.47;6185780;28;20054;-83
2022/01/06 01:39:35;;;;;;;0.15;0.15;;;;;;;0.99;100.00;100874.41;6180459;28;20054;-84
2022/01/06 01:42:37;;;;;;;0.50;0.40;;;;;;;0.97;100.00;100876.19;6184132;28;20051;-84
2022/01/06 01:45:45;;;;;;;2.78;1.25;;;;;;;0.96;100.00;100881.38;6192327;28;20038;-84
2022/01/06 01:48:55;;;;;;;1.90;0.47;;;;;;;0.88;100.00;100891.81;6198401;28;20059;-84
2022/01/06 01:51:57;;;;;;;2.38;0.60;;;;;;;0.89;100.00;100900.44;6201436;28;20046;-83
2022/01/06 01:54:59;;;;;;;0.25;0.25;;;;;;;0.88;100.00;100903.91;6202154;28;20050;-83
2022/01/06 01:58:01;;;;;;;0.70;0.47;;;;;;;0.86;100.00;100909.06;6180339;28;20055;-83
2022/01/06 02:01:04;;;;;;;0.63;0.40;;;;;;;0.85;100.00;100914.28;6177305;28;20515;-82
2022/01/06 02:04:05;;;;;;;0.45;0.38;;;;;;;0.84;100.00;100920.31;6176891;28;20042;-84
2022/01/06 02:07:07;;;;;;;0.55;0.38;;;;;;;0.80;100.00;100919.50;6176847;28;20435;-83
2022/01/06 02:10:12;;;;;;;0.50;0.43;;;;;;;0.78;100.00;100922.97;6177820;28;20057;-83
2022/01/06 02:13:15;;;;;;;0.45;0.32;;;;;;;0.78;100.00;100923.84;6192354;28;20050;-84
2022/01/06 02:16:21;;;;;;;0.20;0.20;;;;;;;0.75;100.00;100929.88;6201377;28;20125;-83
2022/01/06 02:19:23;;;;;;;0.30;0.30;;;;;;;0.69;100.00;100929.97;6202682;28;20046;-83
2022/01/06 02:22:26;;;;;;;0.10;0.10;;;;;;;0.65;100.00;100936.03;6202468;28;20050;-83
2022/01/06 02:25:30;;;;;;;1.20;0.30;;;;;;;0.61;100.00;100941.25;6197951;28;20043;-83
2022/01/06 02:28:31;;;;;;;0.22;0.22;;;;;;;0.56;100.00;100945.59;6176127;28;20054;-83
2022/01/06 02:31:40;;;;;;;0.63;0.30;;;;;;;0.57;100.00;100943.00;6176009;28;20054;-84
2022/01/06 02:34:41;;;;;;;0.90;0.40;;;;;;;0.55;100.00;100954.25;6176335;28;20058;-83
2022/01/06 02:37:45;;;;;;;0.10;0.10;;;;;;;0.56;100.00;100959.38;6178777;28;20058;-83
2022/01/06 02:40:46;;;;;;;0.70;0.20;;;;;;;0.56;100.00;100959.38;6178591;28;20062;-83
2022/01/06 02:43:50;;;;;;;0.73;0.50;;;;;;;0.52;100.00;100974.94;6179438;28;20050;-83
2022/01/06 02:46:51;;;;;;;0.70;0.30;;;;;;;0.52;100.00;100977.53;6178823;28;20051;-82
2022/01/06 02:49:53;;;;;;;1.05;0.30;;;;;;;0.52;100.00;100987.88;6179193;28;20054;-83
2022/01/06 02:52:56;;;;;;;0.80;0.50;;;;;;;0.47;100.00;100990.50;6189396;28;20051;-83
2022/01/06 02:55:58;;;;;;;0.30;0.30;;;;;;;0.30;100.00;101003.53;6198391;28;20062;-84
2022/01/06 02:58:59;;;;;;;0.15;0.15;;;;;;;0.28;100.00;100994.94;6202062;28;20035;-83
2022/01/06 03:02:01;;;;;;;7.43;0.43;;;;;;;0.25;100.00;101006.16;6196135;28;20058;-84
2022/01/06 03:05:03;;;;;;;1.45;0.38;;;;;;;0.20;100.00;101001.88;6194566;28;20055;-83
2022/01/06 03:08:06;;;;;;;0.55;0.55;;;;;;;0.17;100.00;101000.16;6194092;28;20058;-83
2022/01/06 03:11:08;;;;;;;2.50;0.65;;;;;;;0.16;100.00;101003.63;6189253;28;20050;-83
2022/01/06 03:14:09;;;;;;;0.20;0.20;;;;;;;0.13;100.00;101007.94;6190852;28;20047;-84
2022/01/06 03:17:11;;;;;;;0.20;0.20;;;;;;;0.11;100.00;101022.63;6186469;28;20418;-83
2022/01/06 03:20:14;;;;;;;0.43;0.30;;;;;;;0.12;100.00;101026.91;6188640;28;20054;-83
2022/01/06 03:23:17;;;;;;;2.90;0.47;;;;;;;0.07;100.00;101029.53;6190002;28;20054;-82
2022/01/06 03:26:18;;;;;;;0.75;0.57;;;;;;;0.06;100.00;101032.13;6196829;28;20043;-83
2022/01/06 03:29:19;;;;;;;2.53;0.95;;;;;;;0.00;100.00;101038.19;6204176;28;20513;-83
2022/01/06 03:32:21;;;;;;;0.57;0.30;;;;;;;-0.04;100.00;101042.50;6197691;28;20129;-82
2022/01/06 03:35:26;;;;;;;0.20;0.20;;;;;;;-0.04;100.00;101039.06;6194040;28;20047;-82
2022/01/06 03:38:29;;;;;;;0.40;0.40;;;;;;;0.01;100.00;101034.75;6193887;28;20047;-82
2022/01/06 03:41:31;;;;;;;0.20;0.20;;;;;;;-0.02;100.00;101024.41;6205601;28;20051;-82
2022/01/06 03:44:32;;;;;;;2.63;0.40;;;;;;;0.04;100.00;101039.88;6193870;28;20058;-82
2022/01/06 03:47:35;;;;;;;0.22;0.20;;;;;;;0.07;100.00;101041.59;6183805;28;20130;-83
2022/01/06 03:50:36;;;;;;;0.45;0.20;;;;;;;-0.04;100.00;101046.81;6182682;28;20525;-83
2022/01/06 03:53:39;;;;;;;0.40;0.40;;;;;;;-0.06;100.00;101057.16;6183234;28;20046;-83
2022/01/06 03:56:41;;;;;;;0.95;0.50;;;;;;;-0.07;100.00;101052.84;6200435;28;20050;-82
2022/01/06 03:59:42;;;;;;;1.13;0.40;;;;;;;-0.03;100.00;101051.13;6184079;28;20418;-82
2022/01/06 04:02:44;;;;;;;0.13;0.13;;;;;;;0.06;100.00;101066.56;6185077;28;20050;-82
2022/01/06 04:05:45;;;;;;;0.20;0.20;;;;;;;0.09;100.00;101078.59;6184085;28;20058;-82
2022/01/06 04:08:48;;;;;;;0.63;0.63;;;;;;;0.09;100.00;101081.19;6184349;28;20047;-82
2022/01/06 04:11:49;;;;;;;0.20;0.20;;;;;;;0.10;100.00;101083.78;6183277;28;20047;-82
2022/01/06 04:14:51;;;;;;;5.05;0.95;;;;;;;0.11;100.00;101092.38;6183159;28;20102;-83
2022/01/06 04:17:53;;;;;;;0.90;0.47;;;;;;;0.08;100.00;101103.56;6195734;28;20426;-82
2022/01/06 04:20:54;;;;;;;0.25;0.25;;;;;;;0.04;100.00;101099.28;6207874;28;20047;-83
2022/01/06 04:23:57;;;;;;;0.47;0.22;;;;;;;0.02;100.00;101110.50;6190980;28;20510;-83
2022/01/06 04:26:58;;;;;;;1.60;0.88;;;;;;;-0.02;100.00;101110.53;6158992;28;20535;-82
2022/01/06 04:30:00;;;;;;;0.85;0.43;;;;;;;0.02;100.00;101113.94;6158532;28;20047;-83
2022/01/06 04:33:01;;;;;;;0.70;0.40;;;;;;;-0.08;100.00;101123.47;6173707;28;20046;-83
2022/01/06 04:36:04;;;;;;;0.40;0.40;;;;;;;-0.11;100.00;101126.06;6182744;28;20056;-83
2022/01/06 04:39:07;;;;;;;0.25;0.25;;;;;;;-0.12;100.00;101124.34;6182915;28;20062;-82
2022/01/06 04:42:08;;;;;;;0.17;0.17;;;;;;;-0.07;100.00;101125.19;6181563;28;20047;-83
2022/01/06 04:45:10;;;;;;;0.30;0.30;;;;;;;-0.03;100.00;101133.78;6180506;28;20503;-82
2022/01/06 04:48:12;;;;;;;0.95;0.50;;;;;;;0.03;100.00;101145.81;6182195;28;20491;-82
2022/01/06 04:51:14;;;;;;;0.40;0.40;;;;;;;0.07;100.00;101142.34;6182254;28;20058;-82
2022/01/06 04:54:16;;;;;;;0.95;0.60;;;;;;;0.14;100.00;101150.09;6182487;28;20054;-82
2022/01/06 04:57:18;;;;;;;1.75;0.40;;;;;;;0.14;100.00;101150.09;6182603;28;20051;-83
2022/01/06 05:00:19;;;;;;;1.40;0.55;;;;;;;0.14;100.00;101150.09;6181227;28;20109;-82
2022/01/06 05:03:20;;;;;;;0.65;0.30;;;;;;;0.09;100.00;101143.19;6182770;28;20054;-82
2022/01/06 05:06:22;;;;;;;0.30;0.30;;;;;;;0.04;100.00;101148.38;6177469;28;20051;-82
2022/01/06 05:09:25;;;;;;;0.30;0.30;;;;;;;0.02;100.00;101157.03;6182935;28;20035;-82
2022/01/06 05:12:26;;;;;;;0.52;0.52;;;;;;;0.08;100.00;101168.19;6181064;28;20055;-82
2022/01/06 05:15:28;;;;;;;0.20;0.10;;;;;;;0.15;100.00;101167.31;6184381;28;20047;-83
2022/01/06 05:18:29;;;;;;;0.38;0.38;;;;;;;0.14;100.00;101178.50;6200883;28;20058;-83
2022/01/06 05:21:32;;;;;;;1.88;0.77;;;;;;;0.20;100.00;101175.03;6186948;28;20043;-83
2022/01/06 05:24:37;;;;;;;0.40;0.40;;;;;;;0.19;100.00;101173.31;6187025;28;20046;-83
2022/01/06 05:27:39;;;;;;;0.38;0.38;;;;;;;0.16;100.00;101183.66;6186897;28;20380;-82
2022/01/06 05:30:40;;;;;;;0.40;0.40;;;;;;;0.18;100.00;101195.72;6191612;28;20058;-82
2022/01/06 05:33:42;;;;;;;0.50;0.50;;;;;;;0.27;100.00;101202.56;6200998;28;20521;-82
2022/01/06 05:36:43;;;;;;;0.75;0.43;;;;;;;0.25;100.00;101212.06;6200324;28;20038;-83
2022/01/06 05:39:46;;;;;;;0.95;0.50;;;;;;;0.25;100.00;101212.91;6193923;28;20413;-83
2022/01/06 05:42:49;;;;;;;0.80;0.65;;;;;;;0.32;100.00;101211.19;6202271;28;20076;-82
2022/01/06 05:45:51;;;;;;;0.40;0.40;;;;;;;0.36;100.00;101210.28;6202450;28;20081;-82
2022/01/06 05:48:53;;;;;;;1.45;0.60;;;;;;;0.48;100.00;101219.72;6187159;28;20054;-82
2022/01/06 05:51:55;;;;;;;1.23;0.80;;;;;;;0.52;100.00;101216.25;6178251;28;20054;-83
2022/01/06 05:54:57;;;;;;;0.50;0.50;;;;;;;0.53;100.00;101219.69;6169631;28;20058;-83
2022/01/06 05:57:59;;;;;;;0.30;0.30;;;;;;;0.52;100.00;101223.16;6171113;28;20053;-82
2022/01/06 06:01:00;;;;;;;1.02;0.63;;;;;;;0.47;100.00;101224.03;6176327;28;20058;-81
2022/01/06 06:04:01;;;;;;;0.35;0.30;;;;;;;0.54;100.00;101206.75;6191558;28;20058;-83
2022/01/06 06:07:03;;;;;;;0.60;0.60;;;;;;;0.60;100.00;101217.09;6202875;28;20059;-83
2022/01/06 06:10:07;;;;;;;0.40;0.40;;;;;;;0.61;100.00;101215.34;6201708;28;20057;-82
2022/01/06 06:13:09;;;;;;;0.30;0.30;;;;;;;0.60;100.00;101224.00;6201399;28;20050;-82
2022/01/06 06:16:10;;;;;;;0.73;0.43;;;;;;;0.56;100.00;101223.13;6183721;28;20053;-83
2022/01/06 06:19:12;;;;;;;2.08;0.90;;;;;;;0.49;100.00;101240.38;6185116;28;20435;-82
2022/01/06 06:22:13;;;;;;;1.58;0.80;;;;;;;0.43;100.00;101227.50;6200858;28;20050;-83
2022/01/06 06:25:16;;;;;;;1.80;0.80;;;;;;;0.41;100.00;101241.28;6193014;28;20152;-83
2022/01/06 06:28:17;;;;;;;1.55;1.08;;;;;;;0.39;100.00;101243.88;6178435;28;20065;-83
2022/01/06 06:31:18;;;;;;;1.77;1.20;;;;;;;0.35;100.00;101242.16;6155633;28;20058;-82
2022/01/06 06:34:20;;;;;;;0.85;0.47;;;;;;;0.30;100.00;101238.75;6193978;28;20050;-83
2022/01/06 06:37:21;;;;;;;1.13;0.65;;;;;;;0.24;100.00;101237.03;6153785;28;20073;-82
2022/01/06 06:40:24;;;;;;;1.35;0.70;;;;;;;0.17;100.00;101244.81;6171271;28;20058;-83
2022/01/06 06:43:25;;;;;;;1.35;0.93;;;;;;;0.14;100.00;101256.03;6195192;28;20038;-82
2022/01/06 06:46:27;;;;;;;1.63;0.80;;;;;;;0.11;100.00;101243.09;6192757;28;20055;-82
2022/01/06 06:49:31;;;;;;;2.58;0.95;;;;;;;0.10;100.00;101238.81;6175787;28;20050;-83
2022/01/06 06:52:32;;;;;;;1.08;0.98;;;;;;;0.10;100.00;101249.16;6168476;28;20059;-82
2022/01/06 06:55:44;;;;;;;1.48;1.10;;;;;;;0.08;100.00;101263.78;6181655;28;20491;-83
2022/01/06 06:58:45;;;;;;;2.70;0.88;;;;;;;-0.02;100.00;101260.34;6181117;28;20125;-82
2022/01/06 07:01:47;;;;;;;1.65;0.47;;;;;;;0.03;100.00;101265.50;6181245;28;20054;-82
2022/01/06 07:04:48;;;;;;;1.20;0.68;;;;;;;-0.02;100.00;101268.09;6165887;28;20047;-83
2022/01/06 07:07:50;;;;;;;0.35;0.35;;;;;;;0.03;100.00;101269.81;6170839;28;20055;-82
2022/01/06 07:10:52;;;;;;;1.17;0.57;;;;;;;0.06;100.00;101277.59;6156663;29;20051;-82
2022/01/06 07:13:54;;;;;;;3.83;0.75;;;;;;;0.06;100.00;101281.03;6156708;29;20052;-83
2022/01/06 07:17:04;;;;;;;3.17;0.35;;;;;;;0.07;100.00;101280.16;6168606;28;20430;-83
2022/01/06 07:20:07;;;;;;;1.98;0.80;;;;;;;0.06;100.00;101290.50;6172831;28;20054;-82
2022/01/06 07:23:09;;;;;;;2.00;1.15;;;;;;;0.06;100.00;101290.50;6172410;28;20051;-81
2022/01/06 07:26:11;;;;;;;1.17;0.60;;;;;;;0.03;100.00;101298.25;6173452;28;20050;-80
2022/01/06 07:29:13;;;;;;;1.02;0.45;;;;;;;0.02;100.00;101301.69;6170889;28;20074;-81
2022/01/06 07:32:14;;;;;;;0.85;0.60;;;;;;;-0.02;100.00;101312.03;6161479;28;20410;-80
2022/01/06 07:35:17;;;;;;;1.65;0.57;;;;;;;-0.03;100.00;101317.22;6162837;28;20051;-80
2022/01/06 07:38:19;;;;;;;2.00;0.70;;;;;;;-0.06;100.00;101315.47;6163929;28;20043;-81
2022/01/06 07:41:21;;;;;;;0.35;0.30;;;;;;;-0.09;100.00;101323.25;6157423;28;20049;-82
2022/01/06 07:44:23;;;;;;;1.38;0.70;;;;;;;-0.07;100.00;101318.06;6151770;28;20047;-82
2022/01/06 07:47:25;;;;;;;0.50;0.50;;;;;;;-0.13;100.00;101323.25;6173877;28;20051;-81
2022/01/06 07:50:28;;;;;;;0.43;0.43;;;;;;;-0.10;100.00;101336.13;6177894;28;20058;-82
2022/01/06 07:53:29;;;;;;;2.63;1.20;;;;;;;-0.13;100.00;101333.56;6180348;28;20050;-81
2022/01/06 07:56:33;;;;;;;1.33;0.70;;;;;;;-0.13;100.00;101349.06;6180417;28;20051;-81
2022/01/06 07:59:35;;;;;;;8.32;1.15;;;;;;;-0.16;100.00;101344.75;6180121;28;20042;-81
2022/01/06 08:02:36;;;;;;;0.45;0.45;;;;;;;-0.18;100.00;101343.91;6180223;28;20434;-81
2022/01/06 08:05:38;;;;;;;1.17;0.75;;;;;;;-0.18;100.00;101345.59;6179995;28;20051;-81
2022/01/06 08:08:40;;;;;;;1.33;0.77;;;;;;;-0.19;100.00;101349.06;6179907;28;20419;-80
2022/01/06 08:11:43;;;;;;;0.50;0.50;;;;;;;-0.17;100.00;101347.34;6189358;28;20525;-79
2022/01/06 08:14:44;;;;;;;0.38;0.32;;;;;;;-0.14;100.00;101355.94;6186914;28;20490;-79
2022/01/06 08:17:45;;;;;;;0.32;0.32;;;;;;;-0.09;100.00;101355.94;6184499;28;20050;-81
2022/01/06 08:20:47;;;;;;;1.55;1.05;;;;;;;-0.08;100.00;101358.53;6173154;28;20066;-80
2022/01/06 08:23:48;;;;;;;0.40;0.40;;;;;;;-0.08;100.00;101373.19;6196354;28;20430;-79
2022/01/06 08:26:51;;;;;;;0.68;0.57;;;;;;;-0.10;100.00;101380.91;6184358;28;20046;-77
2022/01/06 08:29:53;;;;;;;1.48;0.65;;;;;;;-0.05;100.00;101383.50;6163400;28;20047;-79
2022/01/06 08:32:55;;;;;;;2.22;0.80;;;;;;;-0.02;100.00;101386.94;6179054;28;20050;-78
2022/01/06 08:35:56;;;;;;;1.95;0.80;;;;;;;0.01;100.00;101393.00;6185362;28;20628;-80
2022/01/06 08:38:57;;;;;;;5.72;0.82;;;;;;;0.06;100.00;101402.47;6190362;28;20058;-78
2022/01/06 08:42:00;;;;;;;3.47;0.77;;;;;;;0.09;100.00;101402.47;6190573;28;20054;-79
2022/01/06 08:45:02;;;;;;;1.02;0.57;;;;;;;0.09;100.00;101399.00;6188461;28;20069;-79
2022/01/06 08:48:05;;;;;;;0.90;0.82;;;;;;;0.10;100.00;101398.16;6188717;28;20058;-81
2022/01/06 08:51:06;;;;;;;4.53;0.30;;;;;;;0.09;100.00;101391.25;6185416;28;20505;-80
2022/01/06 08:54:07;;;;;;;3.90;1.17;;;;;;;0.11;100.00;101403.31;6167304;28;20058;-79
2022/01/06 08:57:10;;;;;;;0.85;0.52;;;;;;;0.13;100.00;101399.00;6175062;28;20039;-79
2022/01/06 09:00:13;;;;;;;5.82;0.88;;;;;;;0.17;100.00;101408.47;6179991;28;20047;-80
2022/01/06 09:03:14;;;;;;;0.47;0.45;;;;;;;0.16;100.00;101408.50;6176057;28;20058;-79
2022/01/06 09:06:16;;;;;;;0.68;0.60;;;;;;;0.20;100.00;101413.66;6177887;28;20054;-79
2022/01/06 09:09:18;;;;;;;5.53;0.50;;;;;;;0.23;100.00;101405.06;6177590;28;20049;-79
2022/01/06 09:12:21;;;;;;;0.38;0.38;;;;;;;0.24;100.00;101415.38;6176779;28;20053;-80
2022/01/06 09:15:22;;;;;;;0.88;0.40;;;;;;;0.27;100.00;101411.91;6155726;28;20055;-79
2022/01/06 09:18:24;;;;;;;0.47;0.47;;;;;;;0.35;100.00;101423.13;6154641;29;20047;-79
2022/01/06 09:21:25;;;;;;;1.73;0.50;;;;;;;0.41;100.00;101430.91;6164126;28;20042;-79
2022/01/06 09:24:28;;;;;;;0.30;0.20;;;;;;;0.47;100.00;101430.88;6181624;28;20047;-79
2022/01/06 09:27:30;;;;;;;1.10;0.40;;;;;;;0.54;100.00;101434.31;6176350;28;20050;-79
2022/01/06 09:30:32;;;;;;;4.30;0.70;;;;;;;0.60;100.00;101443.81;6168544;28;20049;-80
2022/01/06 09:33:33;;;;;;;0.75;0.75;;;;;;;0.70;100.00;101441.19;6165339;28;20043;-80
2022/01/06 09:36:35;;;;;;;2.28;0.77;;;;;;;0.70;100.00;101442.94;6166622;28;20053;-78
2022/01/06 09:39:37;;;;;;;0.40;0.35;;;;;;;0.76;100.00;101454.09;6173730;28;20047;-81
2022/01/06 09:42:40;;;;;;;1.77;0.55;;;;;;;0.89;100.00;101454.09;6170259;28;20061;-81
2022/01/06 09:45:43;;;;;;;1.85;0.82;;;;;;;0.90;100.00;101450.63;6167546;28;20048;-81
2022/01/06 09:48:45;;;;;;;0.73;0.60;;;;;;;0.91;100.00;101444.59;6170572;28;20042;-82
2022/01/06 09:51:47;;;;;;;1.98;0.85;;;;;;;0.91;100.00;101449.75;6174817;28;20057;-83
2022/01/06 09:54:49;;;;;;;3.22;0.60;;;;;;;1.01;100.00;101460.09;6171771;28;20102;-81
2022/01/06 09:57:57;;;;;;;1.50;0.38;;;;;;;0.99;100.00;101450.63;6165991;28;20047;-82
2022/01/06 10:00:59;;;;;;;0.47;0.30;;;;;;;1.01;100.00;101451.50;6187212;28;20132;-81
2022/01/06 10:04:00;;;;;;;2.08;0.50;;;;;;;1.09;100.00;101459.22;6189977;28;20042;-81
2022/01/06 10:07:04;;;;;;;1.80;0.47;;;;;;;1.14;100.00;101457.50;6196763;28;20038;-81
2022/01/06 10:10:08;;;;;;;2.28;0.63;;;;;;;1.14;100.00;101460.94;6190559;28;20053;-80
2022/01/06 10:13:16;;;;;;;0.70;0.57;;;;;;;1.18;100.00;101470.41;6185878;28;20054;-81
2022/01/06 10:16:20;;;;;;;1.10;1.00;;;;;;;1.20;100.00;101470.41;6172549;28;20086;-80
2022/01/06 10:19:21;;;;;;;7.45;0.90;;;;;;;1.19;100.00;101468.69;6182749;28;20046;-79
2022/01/06 10:22:23;;;;;;;1.67;0.50;;;;;;;1.25;100.00;101471.25;6197722;28;20060;-83
2022/01/06 10:25:28;;;;;;;2.88;1.00;;;;;;;1.30;100.00;101476.41;6179609;28;20499;-80
2022/01/06 10:28:31;;;;;;;1.95;1.00;;;;;;;1.37;100.00;101475.53;6168576;28;20047;-82
2022/01/06 10:31:32;;;;;;;0.95;0.77;;;;;;;1.41;100.00;101477.22;6179875;28;20079;-81
2022/01/06 10:34:35;;;;;;;1.70;0.40;;;;;;;1.47;100.00;101470.31;6188508;28;20058;-80
2022/01/06 10:37:41;;;;;;;5.85;1.65;;;;;;;1.52;100.00;101475.47;6189059;28;20074;-81
2022/01/06 10:40:43;;;;;;;1.15;0.57;;;;;;;1.55;100.00;101475.47;6173077;28;20078;-82
2022/01/06 10:43:50;;;;;;;1.02;0.55;;;;;;;1.61;100.00;101478.00;6169910;28;20086;-81
2022/01/06 10:46:58;;;;;;;3.85;1.05;;;;;;;1.64;100.00;101487.50;6167265;28;20514;-80
2022/01/06 10:50:15;;;;;;;2.92;1.00;;;;;;;1.71;100.00;101484.00;6167624;28;20059;-82
2022/01/06 10:53:16;;;;;;;0.52;0.52;;;;;;;1.76;100.00;101488.28;6169322;28;20076;-82
2022/01/06 10:56:20;;;;;;;0.77;0.75;;;;;;;1.82;100.00;101489.13;6167033;28;20058;-82
2022/01/06 10:59:26;;;;;;;1.15;0.75;;;;;;;1.87;100.00;101489.97;6166531;28;20043;-82
2022/01/06 11:02:27;;;;;;;1.02;0.47;;;;;;;1.92;100.00;101486.50;6168058;28;20047;-82
2022/01/06 11:05:31;;;;;;;0.60;0.40;;;;;;;1.99;100.00;101482.97;6166201;28;20047;-82
2022/01/06 11:08:36;;;;;;;1.52;0.47;;;;;;;2.12;100.00;101483.75;6167518;28;20047;-82
2022/01/06 11:12:26;;;;;;;3.25;0.85;;;;;;;2.30;100.00;101493.16;6164754;28;20079;-81
2022/01/06 11:15:09;;;;;;;0.88;0.50;;;;;;;2.34;100.00;101486.22;6168171;28;20043;-82
2022/01/06 11:18:18;;;;;;;1.20;0.60;;;;;;;2.40;100.00;101489.59;6173041;28;20043;-81
2022/01/06 11:21:24;;;;;;;5.57;0.75;;;;;;;2.48;100.00;101485.22;6175274;28;20051;-81
2022/01/06 11:24:27;;;;;;;2.25;0.85;;;;;;;2.49;100.00;101483.47;6171598;28;20426;-81
2022/01/06 11:27:33;;;;;;;1.02;0.43;;;;;;;2.58;100.00;101498.13;6189003;28;20057;-82
2022/01/06 11:30:45;;;;;;;0.93;0.32;;;;;;;2.61;100.00;101485.13;6206277;28;20042;-84
2022/01/06 11:33:48;;;;;;;12.77;1.05;;;;;;;2.69;100.00;101489.38;6206670;28;20057;-84
2022/01/06 11:36:52;;;;;;;2.80;0.57;;;;;;;2.68;100.00;101502.34;6206903;28;20143;-83
2022/01/06 11:40:02;;;;;;;8.20;1.20;;;;;;;2.67;100.00;101501.47;6207784;28;20042;-83
2022/01/06 11:43:03;;;;;;;2.47;0.82;;;;;;;2.69;100.00;101502.34;6207494;28;20418;-83
2022/01/06 11:46:06;;;;;;;5.63;0.88;;;;;;;2.72;100.00;101498.84;6181966;28;20058;-81
2022/01/06 11:49:08;;;;;;;1.77;0.73;;;;;;;2.71;100.00;101508.38;6181126;28;20069;-84
2022/01/06 11:52:13;;;;;;;4.90;0.65;;;;;;;2.85;100.00;101510.00;6182969;28;20059;-82
2022/01/06 11:55:15;;;;;;;2.50;0.55;;;;;;;2.86;100.00;101503.91;6187354;28;20054;-83
2022/01/06 11:58:18;;;;;;;3.25;0.47;;;;;;;2.88;100.00;101509.97;6182844;28;20143;-80
2022/01/06 12:01:21;;;;;;;0.60;0.50;;;;;;;2.90;100.00;101500.41;6201699;28;20054;-81
2022/01/06 12:04:24;;;;;;;2.47;0.73;;;;;;;3.02;100.00;101505.50;6193962;28;20054;-83
2022/01/06 12:07:27;;;;;;;2.08;0.52;;;;;;;3.23;100.00;101501.84;6179641;28;20051;-84
2022/01/06 12:10:39;;;;;;;1.58;0.63;;;;;;;3.29;100.00;101507.81;6177499;28;20070;-84
2022/01/06 12:13:44;;;;;;;2.15;1.05;;;;;;;3.36;100.00;101498.22;6175720;28;20066;-82
2022/01/06 12:16:47;;;;;;;8.50;1.05;;;;;;;3.39;100.00;101492.97;6171166;28;20514;-83
2022/01/06 12:19:48;;;;;;;2.45;0.57;;;;;;;3.42;100.00;101497.28;6171436;28;20066;-84
2022/01/06 12:22:51;;;;;;;0.47;0.45;;;;;;;3.50;100.00;101498.06;6176833;28;20058;-82
2022/01/06 12:25:56;;;;;;;2.63;0.65;;;;;;;3.50;100.00;101491.13;6168877;28;20047;-82
2022/01/06 12:28:58;;;;;;;5.18;1.05;;;;;;;3.63;100.00;101491.81;6175631;28;20046;-84
2022/01/06 12:32:07;;;;;;;2.35;0.52;;;;;;;3.64;100.00;101487.50;6181376;28;20073;-80
2022/01/06 12:35:08;;;;;;;7.78;1.25;;;;;;;3.56;100.00;101484.97;6179362;28;20418;-82
2022/01/06 12:38:12;;;;;;;5.57;0.88;;;;;;;3.55;100.00;101484.13;6174837;28;20054;-81
2022/01/06 12:41:16;;;;;;;5.97;0.90;;;;;;;3.55;100.00;101480.66;6172074;28;20047;-81
2022/01/06 12:44:20;;;;;;;0.80;0.70;;;;;;;3.52;100.00;101486.75;6167481;28;20043;-81
2022/01/06 12:47:23;;;;;;;2.05;1.02;;;;;;;3.50;100.00;101491.13;6168095;28;20043;-82
2022/01/06 12:50:24;;;;;;;1.95;0.60;;;;;;;3.53;100.00;101485.00;6171459;28;20058;-83
2022/01/06 12:53:28;;;;;;;0.40;0.40;;;;;;;3.54;100.00;101485.00;6162964;28;20047;-84
2022/01/06 12:56:31;;;;;;;0.75;0.65;;;;;;;3.59;100.00;101494.47;6168101;28;20051;-80
2022/01/06 12:59:34;;;;;;;2.35;0.75;;;;;;;3.51;100.00;101497.19;6166915;28;20044;-82
2022/01/06 13:02:37;;;;;;;3.45;0.95;;;;;;;3.50;100.00;101491.13;6168285;28;20508;-82
2022/01/06 13:05:39;;;;;;;8.63;1.08;;;;;;;3.51;100.00;101490.22;6167958;28;20066;-82
2022/01/06 13:08:45;;;;;;;0.77;0.55;;;;;;;3.61;100.00;101496.19;6165955;28;20553;-82
2022/01/06 13:11:52;;;;;;;0.40;0.40;;;;;;;3.60;100.00;101496.19;6162149;28;20057;-82
2022/01/06 13:14:54;;;;;;;2.05;0.88;;;;;;;3.62;100.00;101504.81;6166775;28;20043;-79
2022/01/06 13:17:57;;;;;;;3.33;0.52;;;;;;;3.55;100.00;101502.31;6171482;28;20059;-81
2022/01/06 13:21:01;;;;;;;1.17;0.55;;;;;;;3.54;100.00;101505.81;6161570;28;20054;-83
2022/01/06 13:24:23;;;;;;;1.85;0.55;;;;;;;3.66;100.00;101496.97;6166224;28;20051;-83
2022/01/06 13:27:24;;;;;;;4.50;1.48;;;;;;;3.75;100.00;101493.41;6172735;28;20063;-81
2022/01/06 13:30:33;;;;;;;1.02;0.50;;;;;;;3.92;100.00;101506.19;6169143;28;20411;-82
2022/01/06 13:33:36;;;;;;;3.10;0.95;;;;;;;4.04;100.00;101506.00;6171455;28;20057;-82
2022/01/06 13:36:37;;;;;;;0.50;0.50;;;;;;;4.03;100.00;101507.72;6173185;28;20054;-81
2022/01/06 13:39:42;;;;;;;2.40;0.77;;;;;;;4.06;100.00;101510.31;6169949;28;20050;-82
2022/01/06 13:42:45;;;;;;;3.88;0.63;;;;;;;4.10;100.00;101500.72;6167748;28;20051;-80
2022/01/06 13:45:49;;;;;;;6.47;0.47;;;;;;;4.02;100.00;101507.75;6166421;28;20547;-79
2022/01/06 13:52:20;;;;;;;0.52;0.40;;;;;;;4.04;100.00;101509.47;6176916;28;20910;-81
2022/01/06 13:55:21;;;;;;;2.22;0.80;;;;;;;3.99;100.00;101502.59;6172621;28;20043;-80
2022/01/06 13:58:22;;;;;;;1.88;0.50;;;;;;;3.90;100.00;101508.78;6172180;28;20050;-80
2022/01/06 14:01:26;;;;;;;2.53;0.45;;;;;;;3.95;100.00;101506.13;6176063;28;20061;-81
2022/01/06 14:04:33;;;;;;;9.45;0.80;;;;;;;3.91;100.00;101513.13;6176097;28;20058;-80
2022/01/06 14:07:34;;;;;;;9.25;0.85;;;;;;;3.94;100.00;101509.59;6173021;28;20073;-81
2022/01/06 14:10:35;;;;;;;0.65;0.57;;;;;;;3.92;100.00;101504.44;6174151;28;20055;-81
2022/01/06 14:13:37;;;;;;;1.45;0.45;;;;;;;3.90;100.00;101505.31;6169112;28;20045;-81
2022/01/06 14:16:39;;;;;;;1.85;0.57;;;;;;;3.85;100.00;101504.53;6165585;28;20066;-81